Time;durP1;ratioP1;P1;durP2;ratioP2;P2;SDS_P1;SDS_P2;PMS_P1;PMS_P2;Temp;Humidity;BMP_temperature;BMP_pressure;BME280_temperature;BME280_humidity;BME280_pressure;Samples;Min_cycle;Max_cycle;Signal;HPM_P1;HPM_P2
2022/11/14 00:00:26;;;;;;;19.52;14.70;;;;;;;6.89;72.96;96631.13;6215214;23;20111;-81
2022/11/14 00:02:54;;;;;;;20.25;15.40;;;;;;;6.83;72.72;96636.94;6215382;23;20063;-82
2022/11/14 00:05:25;;;;;;;22.17;15.68;;;;;;;6.79;73.48;96638.22;6215464;23;20107;-81
2022/11/14 00:07:53;;;;;;;19.42;13.60;;;;;;;6.76;72.96;96636.75;6214708;23;20461;-81
2022/11/14 00:10:21;;;;;;;20.38;14.52;;;;;;;6.75;73.17;96644.69;6215039;23;20099;-81
2022/11/14 00:12:50;;;;;;;18.60;14.15;;;;;;;6.75;73.42;96645.50;6215137;23;20044;-82
2022/11/14 00:15:19;;;;;;;21.58;14.95;;;;;;;6.76;73.32;96641.13;6215095;23;20347;-81
2022/11/14 00:17:46;;;;;;;20.83;14.68;;;;;;;6.73;73.18;96636.25;6214620;23;20020;-81
2022/11/14 00:20:15;;;;;;;21.77;14.60;;;;;;;6.68;73.02;96644.50;6214949;23;20020;-82
2022/11/14 00:22:42;;;;;;;18.27;12.88;;;;;;;6.63;73.46;96635.59;6214770;23;20017;-82
2022/11/14 00:25:10;;;;;;;19.23;14.10;;;;;;;6.55;73.42;96646.72;6215220;23;20099;-81
2022/11/14 00:27:38;;;;;;;20.80;14.40;;;;;;;6.50;73.72;96636.00;6215328;23;20348;-81
2022/11/14 00:30:07;;;;;;;20.13;13.57;;;;;;;6.45;73.63;96639.06;6214411;23;20017;-82
2022/11/14 00:32:36;;;;;;;21.27;14.70;;;;;;;6.41;73.86;96632.56;6214599;23;20051;-81
2022/11/14 00:35:04;;;;;;;21.55;14.80;;;;;;;6.37;73.98;96633.84;6215228;23;20027;-81
2022/11/14 00:37:31;;;;;;;20.20;14.40;;;;;;;6.35;73.94;96633.19;6215123;23;20020;-81
2022/11/14 00:39:59;;;;;;;19.70;14.07;;;;;;;6.35;73.87;96628.00;6214733;23;20024;-81
2022/11/14 00:42:27;;;;;;;20.73;15.35;;;;;;;6.34;74.29;96622.00;6214497;23;20025;-82
2022/11/14 00:44:54;;;;;;;20.45;14.52;;;;;;;6.32;73.99;96612.75;6214687;23;20013;-81
2022/11/14 00:47:22;;;;;;;18.20;13.07;;;;;;;6.34;73.90;96603.88;6215606;23;20476;-81
2022/11/14 00:49:51;;;;;;;19.77;14.48;;;;;;;6.35;74.35;96612.44;6216866;23;20020;-82
2022/11/14 00:52:21;;;;;;;21.50;14.15;;;;;;;6.36;73.85;96601.94;6216948;23;20031;-82
2022/11/14 00:54:48;;;;;;;19.38;13.85;;;;;;;6.35;73.84;96615.03;6216924;23;20021;-82
2022/11/14 00:57:16;;;;;;;16.85;12.63;;;;;;;6.31;73.79;96611.94;6217252;23;20371;-80
2022/11/14 00:59:49;;;;;;;18.75;14.02;;;;;;;6.27;74.07;96609.81;6217027;23;20477;-82
2022/11/14 01:02:17;;;;;;;20.10;13.38;;;;;;;6.23;74.13;96598.13;6217148;23;20028;-81
2022/11/14 01:04:45;;;;;;;19.30;13.77;;;;;;;6.19;73.99;96598.47;6216941;23;20031;-81
2022/11/14 01:07:14;;;;;;;19.67;13.55;;;;;;;6.15;73.97;96604.91;6216409;23;20020;-81
2022/11/14 01:09:44;;;;;;;18.08;13.02;;;;;;;6.13;73.60;96599.06;6216585;23;20095;-81
2022/11/14 01:12:12;;;;;;;18.48;12.80;;;;;;;6.04;73.43;96605.16;6216762;23;20048;-82
2022/11/14 01:14:40;;;;;;;18.27;12.65;;;;;;;5.98;73.95;96596.22;6217118;23;20021;-82
2022/11/14 01:17:07;;;;;;;18.02;12.93;;;;;;;5.94;73.94;96600.09;6216695;23;20032;-81
2022/11/14 01:19:35;;;;;;;14.95;11.93;;;;;;;5.93;73.86;96592.47;6216892;23;20403;-81
2022/11/14 01:22:03;;;;;;;15.93;11.90;;;;;;;5.94;73.96;96601.84;6216458;23;20021;-81
2022/11/14 01:24:34;;;;;;;16.40;12.05;;;;;;;5.97;73.81;96606.75;6216651;23;20479;-81
2022/11/14 01:27:02;;;;;;;15.63;11.98;;;;;;;5.97;73.23;96602.38;6218154;23;20016;-82
2022/11/14 01:29:30;;;;;;;18.70;13.15;;;;;;;5.94;73.44;96600.09;6221557;23;20025;-82
2022/11/14 01:31:58;;;;;;;19.83;13.30;;;;;;;5.93;73.21;96598.44;6217536;23;20360;-81
2022/11/14 01:34:25;;;;;;;16.02;12.13;;;;;;;5.91;72.86;96589.19;6217994;23;20021;-81
2022/11/14 01:36:53;;;;;;;16.50;12.15;;;;;;;5.84;73.37;96583.81;6223547;23;20031;-82
2022/11/14 01:39:21;;;;;;;16.98;12.57;;;;;;;5.80;73.07;96581.69;6224200;23;20021;-82
2022/11/14 01:41:50;;;;;;;17.65;13.38;;;;;;;5.73;73.17;96577.13;6223956;23;20095;-81
2022/11/14 01:44:41;;;;;;;17.55;11.85;;;;;;;5.65;73.81;96582.22;6222983;23;20099;-82
2022/11/14 01:47:14;;;;;;;17.13;12.57;;;;;;;5.61;73.59;96570.56;6224157;23;20017;-81
2022/11/14 01:49:46;;;;;;;17.88;12.52;;;;;;;5.58;74.12;96563.91;6223751;23;20361;-82
2022/11/14 01:52:16;;;;;;;17.67;11.33;;;;;;;5.55;73.84;96564.22;6224892;23;20016;-82
2022/11/14 01:54:48;;;;;;;18.00;13.07;;;;;;;5.52;74.06;96567.09;6222789;23;20021;-82
2022/11/14 01:57:20;;;;;;;19.13;13.50;;;;;;;5.50;74.32;96573.38;6222685;23;20017;-81
2022/11/14 01:59:51;;;;;;;18.17;11.65;;;;;;;5.47;74.44;96571.13;6223654;23;20039;-82
2022/11/14 02:02:21;;;;;;;16.77;11.32;;;;;;;5.46;74.37;96569.47;6223681;23;20027;-82
2022/11/14 02:04:55;;;;;;;16.45;11.65;;;;;;;5.46;74.73;96570.28;6223902;23;20099;-81
2022/11/14 02:07:25;;;;;;;16.50;11.77;;;;;;;5.47;74.50;96571.13;6225013;23;20065;-81
2022/11/14 02:09:54;;;;;;;15.40;11.85;;;;;;;5.46;74.12;96575.47;6234906;23;20024;-80
2022/11/14 02:12:25;;;;;;;15.05;11.10;;;;;;;5.46;74.55;96583.22;6243250;23;20008;-82
2022/11/14 02:14:55;;;;;;;16.83;11.95;;;;;;;5.45;74.85;96573.84;6243831;23;20028;-80
2022/11/14 02:17:26;;;;;;;18.13;12.60;;;;;;;5.45;74.82;96573.03;6230470;22;20025;-82
2022/11/14 02:20:07;;;;;;;14.98;10.88;;;;;;;5.47;75.37;96577.09;6224913;23;20016;-82
2022/11/14 02:22:34;;;;;;;16.77;11.80;;;;;;;5.51;74.45;96572.41;6226219;23;20019;-82
2022/11/14 02:25:02;;;;;;;18.98;12.38;;;;;;;5.48;74.08;96576.13;6226343;23;20051;-81
2022/11/14 02:27:32;;;;;;;16.67;11.95;;;;;;;5.45;74.53;96583.38;6226421;23;20025;-82
2022/11/14 02:30:04;;;;;;;16.70;12.32;;;;;;;5.37;74.92;96577.16;6225088;23;20127;-81
2022/11/14 02:32:34;;;;;;;15.73;11.15;;;;;;;5.33;74.74;96581.00;6225534;23;20040;-82
2022/11/14 02:35:23;;;;;;;18.30;12.50;;;;;;;5.31;75.05;96574.38;6224755;23;20427;-82
2022/11/14 02:37:51;;;;;;;14.90;11.35;;;;;;;5.28;75.07;96565.13;6223705;23;20016;-81
2022/11/14 02:40:21;;;;;;;14.80;11.73;;;;;;;5.27;75.10;96560.94;6224923;23;20047;-81
2022/11/14 02:42:48;;;;;;;15.68;10.85;;;;;;;5.27;75.67;96563.53;6224346;23;20064;-82
2022/11/14 02:45:19;;;;;;;14.88;10.95;;;;;;;5.30;75.49;96554.66;6229936;23;20007;-81
2022/11/14 02:47:48;;;;;;;14.73;11.48;;;;;;;5.31;75.35;96535.56;6243210;23;20024;-80
2022/11/14 02:50:16;;;;;;;15.60;10.80;;;;;;;5.32;75.38;96516.53;6243275;22;20005;-81
2022/11/14 02:52:46;;;;;;;14.25;10.90;;;;;;;5.34;75.61;96515.41;6240245;23;20040;-82
2022/11/14 02:55:14;;;;;;;15.45;11.43;;;;;;;5.34;75.89;96512.81;6228593;23;20021;-82
2022/11/14 02:57:41;;;;;;;16.67;11.85;;;;;;;5.33;75.53;96513.75;6225851;23;20055;-81
2022/11/14 03:00:10;;;;;;;15.00;11.40;;;;;;;5.33;75.66;96513.75;6224700;23;20092;-81
2022/11/14 03:02:42;;;;;;;15.15;11.05;;;;;;;5.35;75.48;96518.78;6225537;23;20353;-82
2022/11/14 03:05:09;;;;;;;15.32;11.05;;;;;;;5.35;75.60;96527.34;6225441;23;20112;-81
2022/11/14 03:07:37;;;;;;;16.33;11.23;;;;;;;5.38;75.46;96531.44;6224315;23;20084;-82
2022/11/14 03:10:13;;;;;;;15.55;11.43;;;;;;;5.42;75.36;96547.47;6225167;23;20013;-82
2022/11/14 03:12:41;;;;;;;14.88;11.35;;;;;;;5.41;75.34;96558.78;6226876;23;20048;-82
2022/11/14 03:15:10;;;;;;;15.90;11.20;;;;;;;5.37;75.44;96566.81;6238430;23;20028;-82
2022/11/14 03:17:38;;;;;;;14.98;10.68;;;;;;;5.36;75.07;96572.97;6238312;23;20047;-81
2022/11/14 03:20:07;;;;;;;13.40;10.50;;;;;;;5.35;75.79;96576.50;6233810;23;20453;-82
2022/11/14 05:47:57;;;;;;;14.73;11.23;;;;;;;5.62;77.64;96528.22;6222548;22;20032;-82
2022/11/14 05:50:25;;;;;;;17.13;12.07;;;;;;;5.65;77.48;96516.72;6226044;23;20347;-82
2022/11/14 05:52:56;;;;;;;15.43;11.48;;;;;;;5.68;77.83;96527.56;6217195;23;20393;-82
2022/11/14 05:55:24;;;;;;;17.70;12.48;;;;;;;5.72;77.93;96522.91;6219571;23;20016;-82
2022/11/14 05:57:53;;;;;;;16.23;12.15;;;;;;;5.72;77.79;96518.53;6221694;23;20016;-82
2022/11/14 06:00:24;;;;;;;17.60;12.35;;;;;;;5.76;78.20;96521.66;6222944;23;20377;-82
2022/11/14 06:03:04;;;;;;;18.00;12.27;;;;;;;5.80;77.58;96520.38;6220244;23;20448;-82
2022/11/14 06:05:36;;;;;;;16.75;11.55;;;;;;;5.86;77.76;96519.78;6220891;23;20058;-81
2022/11/14 06:08:04;;;;;;;15.82;11.13;;;;;;;5.92;77.78;96518.31;6218295;23;20020;-82
2022/11/14 06:10:35;;;;;;;20.08;14.02;;;;;;;5.99;78.02;96529.72;6228301;23;20016;-82
2022/11/14 06:13:05;;;;;;;17.13;12.15;;;;;;;6.04;77.63;96521.50;6222415;23;20027;-81
2022/11/14 06:15:34;;;;;;;16.95;12.88;;;;;;;6.06;77.55;96520.38;6215135;23;20041;-81
2022/11/14 06:18:03;;;;;;;14.75;10.73;;;;;;;6.09;77.22;96521.84;6216492;23;20608;-81
2022/11/14 06:20:31;;;;;;;16.40;11.95;;;;;;;6.11;77.21;96528.47;6226420;23;20056;-82
2022/11/14 06:22:58;;;;;;;14.50;10.25;;;;;;;6.13;76.96;96523.16;6220206;22;20104;-80
2022/11/14 06:25:26;;;;;;;14.05;10.50;;;;;;;6.11;76.68;96528.47;6216185;23;20029;-81
2022/11/14 06:27:54;;;;;;;13.95;10.75;;;;;;;6.10;77.00;96516.50;6218336;23;20020;-81
2022/11/14 06:30:27;;;;;;;14.63;10.40;;;;;;;6.09;76.97;96514.88;6224935;23;20024;-82
2022/11/14 06:33:09;;;;;;;16.48;11.15;;;;;;;6.11;76.76;96512.94;6223540;23;20017;-83
2022/11/14 06:38:51;;;;;;;18.52;11.65;;;;;;;6.12;76.74;96504.22;6219996;23;20083;-82
2022/11/14 06:41:31;;;;;;;16.52;10.95;;;;;;;6.12;76.70;96521.50;6219677;23;20047;-82
2022/11/14 06:44:33;;;;;;;14.77;10.27;;;;;;;6.12;76.44;96530.13;6219538;23;20483;-82
2022/11/14 06:47:04;;;;;;;15.73;10.98;;;;;;;6.14;76.69;96530.78;6219952;23;20075;-82
2022/11/14 06:49:37;;;;;;;17.20;11.35;;;;;;;6.16;76.54;96531.41;6219275;23;20103;-82
2022/11/14 06:52:10;;;;;;;14.55;10.80;;;;;;;6.15;76.58;96547.13;6220067;23;20472;-83
2022/11/14 06:54:56;;;;;;;19.17;12.07;;;;;;;6.13;76.28;96539.50;6220459;23;20020;-83
2022/11/14 06:57:29;;;;;;;15.48;11.80;;;;;;;6.12;76.48;96556.03;6219693;23;20013;-82
2022/11/14 07:00:04;;;;;;;17.75;12.07;;;;;;;6.08;76.47;96557.28;6220487;23;20091;-82
2022/11/14 07:02:40;;;;;;;17.77;12.30;;;;;;;5.98;76.83;96556.56;6220162;23;20016;-82
2022/11/14 07:05:15;;;;;;;16.00;11.55;;;;;;;5.93;77.29;96563.97;6220600;23;20400;-82
2022/11/14 07:07:51;;;;;;;14.73;11.27;;;;;;;5.90;76.88;96575.47;6220301;23;20025;-82
2022/11/14 07:10:22;;;;;;;16.88;11.70;;;;;;;5.90;77.33;96577.22;6219228;23;20064;-82
2022/11/14 07:12:56;;;;;;;16.58;11.45;;;;;;;5.94;77.96;96583.72;6219903;23;20322;-82
2022/11/14 07:15:29;;;;;;;14.65;10.07;;;;;;;6.03;77.35;96595.75;6225513;23;20020;-82
2022/11/14 07:18:07;;;;;;;15.25;10.60;;;;;;;6.09;77.73;96594.34;6232704;23;20123;-82
2022/11/14 07:20:59;;;;;;;15.88;11.27;;;;;;;6.14;77.22;96611.06;6226863;23;20025;-82
2022/11/14 07:23:41;;;;;;;14.82;11.38;;;;;;;6.17;77.24;96602.97;6220805;23;20036;-82
2022/11/14 07:26:15;;;;;;;16.38;11.90;;;;;;;6.20;76.83;96612.22;6219188;23;20020;-82
2022/11/14 07:28:46;;;;;;;18.05;12.20;;;;;;;6.22;76.96;96612.88;6219642;23;20083;-83
2022/11/14 07:31:26;;;;;;;15.63;11.55;;;;;;;6.22;77.01;96610.28;6219001;23;20020;-82
2022/11/14 07:33:59;;;;;;;20.17;12.65;;;;;;;6.24;77.07;96613.53;6219509;23;20498;-82
2022/11/14 07:36:33;;;;;;;17.40;11.68;;;;;;;6.27;77.37;96604.63;6218946;23;20021;-82
2022/11/14 07:39:08;;;;;;;19.23;12.73;;;;;;;6.33;77.17;96609.19;6219551;23;20409;-82
2022/11/14 07:41:41;;;;;;;18.63;12.70;;;;;;;6.40;77.07;96605.03;6218108;23;20028;-82
2022/11/14 07:44:12;;;;;;;18.60;12.90;;;;;;;6.47;77.20;96595.69;6218164;23;20044;-82
2022/11/14 07:46:48;;;;;;;16.23;11.98;;;;;;;6.55;76.96;96597.47;6219339;23;20092;-82
2022/11/14 07:49:20;;;;;;;19.25;12.88;;;;;;;6.65;76.88;96597.34;6218852;23;20031;-82
2022/11/14 07:51:56;;;;;;;19.42;13.07;;;;;;;6.73;76.95;96594.78;6217811;23;20027;-82
2022/11/14 07:54:32;;;;;;;21.90;13.35;;;;;;;6.81;76.69;96607.78;6218647;23;20062;-82
2022/11/14 07:57:05;;;;;;;22.05;14.07;;;;;;;6.87;76.43;96607.13;6217753;23;20500;-81
2022/11/14 07:59:37;;;;;;;20.25;13.30;;;;;;;6.95;76.13;96616.72;6218957;23;20020;-82
2022/11/14 08:02:09;;;;;;;18.50;12.38;;;;;;;7.03;76.42;96610.75;6219298;23;20021;-82
2022/11/14 08:04:43;;;;;;;17.50;12.45;;;;;;;7.12;75.94;96609.78;6218596;23;20050;-82
2022/11/14 08:10:03;;;;;;;20.13;13.13;;;;;;;7.34;75.58;96622.13;6217023;23;20040;-82
2022/11/14 08:12:38;;;;;;;17.88;12.32;;;;;;;7.45;75.00;96608.03;6218001;23;20024;-82
2022/11/14 08:15:12;;;;;;;18.45;14.05;;;;;;;7.53;75.02;96597.66;6217406;23;20020;-82
2022/11/14 08:17:48;;;;;;;18.60;13.65;;;;;;;7.64;75.02;96604.31;6217465;23;20453;-82
2022/11/14 08:20:21;;;;;;;18.10;13.15;;;;;;;7.75;74.83;96606.56;6217907;23;20020;-82
2022/11/14 08:23:08;;;;;;;20.70;14.50;;;;;;;7.86;74.61;96602.81;6217114;23;20460;-82
2022/11/14 08:25:49;;;;;;;23.10;14.70;;;;;;;7.97;74.08;96604.28;6217159;23;20025;-82
2022/11/14 08:28:23;;;;;;;21.08;14.13;;;;;;;8.06;73.92;96603.28;6217549;23;20392;-81
2022/11/14 08:31:02;;;;;;;21.48;14.32;;;;;;;8.15;73.74;96602.28;6216608;23;20028;-82
2022/11/14 08:33:53;;;;;;;18.67;13.52;;;;;;;8.25;73.57;96602.91;6215789;23;20024;-82
2022/11/14 08:36:25;;;;;;;23.35;14.52;;;;;;;8.36;73.15;96598.34;6216490;23;20017;-82
2022/11/14 08:39:00;;;;;;;22.98;14.20;;;;;;;8.43;72.73;96605.31;6216406;23;20044;-81
2022/11/14 08:41:41;;;;;;;22.27;14.23;;;;;;;8.53;72.75;96597.31;6216257;23;20032;-82
2022/11/14 08:44:12;;;;;;;17.25;12.57;;;;;;;8.65;72.53;96595.16;6216219;23;20024;-82
2022/11/14 08:46:44;;;;;;;19.90;13.82;;;;;;;8.76;72.10;96607.78;6216237;23;20016;-82
2022/11/14 08:49:19;;;;;;;19.87;13.07;;;;;;;8.86;71.65;96604.97;6214417;23;20016;-82
2022/11/14 08:51:48;;;;;;;20.50;12.73;;;;;;;8.96;71.55;96609.94;6215502;23;20242;-82
2022/11/14 08:54:21;;;;;;;17.58;12.13;;;;;;;9.07;71.23;96607.78;6215548;23;20067;-82
2022/11/14 08:56:53;;;;;;;16.77;12.32;;;;;;;9.21;71.30;96608.03;6216350;23;20074;-82
2022/11/14 08:59:26;;;;;;;17.50;11.50;;;;;;;9.30;71.01;96607.00;6215810;23;20449;-82
2022/11/14 09:02:01;;;;;;;17.13;10.75;;;;;;;9.41;70.89;96617.00;6215679;23;20449;-82
2022/11/14 09:04:32;;;;;;;18.60;12.75;;;;;;;9.50;70.24;96620.34;6215823;23;20020;-82
2022/11/14 09:07:02;;;;;;;20.97;12.90;;;;;;;9.56;69.74;96616.25;6215451;23;20083;-82
2022/11/14 09:09:35;;;;;;;15.25;11.10;;;;;;;9.66;70.05;96622.00;6217243;23;20016;-82
2022/11/14 09:12:06;;;;;;;17.60;11.35;;;;;;;9.80;70.13;96618.66;6217283;23;20023;-81
2022/11/14 09:14:37;;;;;;;18.67;13.00;;;;;;;9.96;69.27;96624.69;6217414;23;20027;-82
2022/11/14 09:17:07;;;;;;;17.23;11.88;;;;;;;10.05;68.69;96628.84;6217249;23;20017;-82
2022/11/14 09:19:38;;;;;;;16.80;12.13;;;;;;;10.15;68.53;96621.59;6217043;23;20017;-83
2022/11/14 09:22:09;;;;;;;15.82;11.40;;;;;;;10.28;68.13;96621.78;6227792;22;20036;-81
2022/11/14 09:24:38;;;;;;;15.98;11.65;;;;;;;10.43;67.30;96623.59;6225717;23;20040;-81
2022/11/14 09:27:06;;;;;;;16.02;11.23;;;;;;;10.57;67.15;96633.22;6220273;23;20024;-81
2022/11/14 09:29:33;;;;;;;18.50;11.57;;;;;;;10.72;66.67;96623.59;6220783;23;20099;-81
2022/11/14 09:32:01;;;;;;;16.98;12.20;;;;;;;10.89;66.25;96624.19;6220372;23;20099;-81
2022/11/14 09:34:29;;;;;;;16.50;12.30;;;;;;;11.05;65.60;96622.38;6221069;23;20016;-81
2022/11/14 09:36:56;;;;;;;14.60;11.02;;;;;;;11.16;65.48;96619.25;6221439;23;20417;-81
2022/11/14 09:39:24;;;;;;;14.38;11.15;;;;;;;11.31;65.29;96621.84;6221237;23;20051;-81
2022/11/14 09:42:06;;;;;;;13.70;10.13;;;;;;;11.47;64.03;96632.03;6221419;23;20072;-81
2022/11/14 09:44:56;;;;;;;21.40;10.70;;;;;;;11.63;63.68;96625.75;6222521;23;20016;-81
2022/11/14 09:47:29;;;;;;;14.77;11.32;;;;;;;11.80;63.36;96623.69;6222817;23;20064;-81
2022/11/14 09:50:05;;;;;;;12.85;10.15;;;;;;;12.04;62.73;96627.72;6222262;23;20021;-81
2022/11/14 09:52:36;;;;;;;16.13;10.65;;;;;;;12.27;61.87;96635.31;6223229;23;20013;-81
2022/11/14 09:55:12;;;;;;;18.23;10.38;;;;;;;12.49;61.11;96632.66;6224742;23;20044;-81
2022/11/14 09:57:44;;;;;;;11.88;9.45;;;;;;;12.69;61.05;96625.69;6222781;23;20071;-81
2022/11/14 10:00:14;;;;;;;11.73;9.82;;;;;;;12.90;60.81;96631.81;6223322;23;20036;-81
2022/11/14 10:02:54;;;;;;;13.68;9.60;;;;;;;13.05;59.42;96635.09;6224545;23;20021;-81
2022/11/14 10:05:54;;;;;;;12.88;9.38;;;;;;;13.25;59.10;96635.19;6223629;23;20017;-81
2022/11/14 10:08:44;;;;;;;13.68;9.95;;;;;;;13.44;58.68;96628.38;6224863;23;20023;-81
2022/11/14 10:11:18;;;;;;;13.57;9.73;;;;;;;13.57;58.20;96623.16;6224737;23;20047;-81
2022/11/14 10:14:08;;;;;;;13.35;9.05;;;;;;;13.73;57.43;96626.41;6239441;23;20027;-81
2022/11/14 10:16:47;;;;;;;11.95;8.63;;;;;;;13.88;57.13;96628.84;6237773;23;20020;-81
2022/11/14 10:19:23;;;;;;;10.65;8.48;;;;;;;14.06;56.92;96636.09;6229677;23;20012;-81
2022/11/14 10:22:05;;;;;;;11.00;9.35;;;;;;;14.11;55.74;96633.69;6227904;23;20021;-81
2022/11/14 10:25:04;;;;;;;14.27;10.38;;;;;;;14.03;55.61;96629.44;6225388;23;20031;-81
2022/11/14 10:27:38;;;;;;;11.25;8.57;;;;;;;13.95;56.22;96625.22;6225687;23;20344;-81
2022/11/14 10:30:14;;;;;;;12.05;9.32;;;;;;;14.01;56.11;96623.59;6224576;23;20021;-81
2022/11/14 10:33:09;;;;;;;10.75;8.40;;;;;;;14.17;56.38;96622.38;6224352;23;20071;-81
2022/11/14 10:35:42;;;;;;;9.48;8.10;;;;;;;14.35;55.98;96622.53;6225200;23;20036;-81
2022/11/14 10:38:13;;;;;;;;;;;;;;;14.55;55.81;96625.16;6224928;23;20020;-81
2022/11/14 10:40:45;;;;;;;14.05;9.75;;;;;;;14.71;55.53;96629.13;6226006;23;19916;-81
2022/11/14 10:43:27;;;;;;;12.17;9.40;;;;;;;14.89;54.60;96635.53;6225954;23;20048;-81
2022/11/14 10:46:03;;;;;;;12.18;9.73;;;;;;;15.09;53.70;96631.03;6227171;23;20024;-81
2022/11/14 10:48:35;;;;;;;14.40;10.30;;;;;;;15.21;53.34;96645.09;6227604;23;20515;-81
2022/11/14 10:51:08;;;;;;;16.38;11.15;;;;;;;15.25;53.05;96641.03;6228167;23;20020;-81
2022/11/14 10:53:50;;;;;;;14.05;9.95;;;;;;;15.36;52.73;96631.69;6227606;23;20063;-81
2022/11/14 10:56:19;;;;;;;13.25;9.93;;;;;;;15.50;52.84;96631.59;6227623;23;20090;-81
2022/11/14 10:58:48;;;;;;;11.00;9.43;;;;;;;15.68;52.56;96634.34;6228457;23;20047;-81
2022/11/14 11:01:37;;;;;;;13.10;8.65;;;;;;;15.94;51.18;96630.72;6228101;23;20020;-81
2022/11/14 11:04:14;;;;;;;14.88;10.18;;;;;;;16.13;50.42;96628.13;6228205;23;20074;-81
2022/11/14 11:06:43;;;;;;;11.43;8.90;;;;;;;16.22;50.96;96630.28;6228379;23;20028;-81
2022/11/14 11:12:03;;;;;;;10.90;8.85;;;;;;;16.60;50.58;96631.13;6229804;23;20081;-81
2022/11/14 11:14:33;;;;;;;9.90;8.90;;;;;;;16.76;49.72;96627.91;6230692;23;20064;-81
2022/11/14 11:17:21;;;;;;;10.82;8.05;;;;;;;16.95;48.81;96622.66;6230919;23;20021;-81
2022/11/14 11:19:50;;;;;;;11.43;8.90;;;;;;;17.10;49.22;96623.09;6231629;23;20040;-82
2022/11/14 11:22:28;;;;;;;10.95;8.63;;;;;;;17.28;47.66;96622.25;6231310;23;20028;-81
2022/11/14 11:24:57;;;;;;;11.23;8.82;;;;;;;17.39;47.89;96613.56;6233020;23;20017;-81
2022/11/14 11:27:28;;;;;;;12.02;8.10;;;;;;;17.49;47.57;96611.19;6234202;23;20027;-81
2022/11/14 11:30:09;;;;;;;11.52;9.02;;;;;;;17.53;46.54;96619.44;6234428;23;20021;-81
2022/11/14 11:32:39;;;;;;;10.25;8.70;;;;;;;17.48;47.03;96624.59;6234705;23;20051;-81
2022/11/14 11:35:15;;;;;;;9.68;7.80;;;;;;;17.49;46.91;96618.28;6234144;23;20518;-81
2022/11/14 11:37:58;;;;;;;10.63;9.48;;;;;;;17.55;46.59;96620.03;6236039;23;20044;-81
2022/11/14 11:40:28;;;;;;;11.10;9.48;;;;;;;17.61;46.97;96615.69;6235953;23;20028;-82
2022/11/14 11:43:03;;;;;;;14.27;9.75;;;;;;;17.52;46.71;96606.50;6237588;23;20026;-81
2022/11/14 11:45:55;;;;;;;9.55;8.55;;;;;;;17.43;47.03;96604.19;6240243;23;20025;-82
2022/11/14 11:48:37;;;;;;;10.85;8.70;;;;;;;17.52;46.79;96590.69;6241193;23;20084;-82
2022/11/14 11:51:07;;;;;;;;;;;;;;;17.61;47.12;96584.84;6241584;23;20025;-82
2022/11/14 11:53:41;;;;;;;9.25;7.95;;;;;;;17.61;46.81;96584.84;6237172;23;19922;-81
2022/11/14 11:56:15;;;;;;;11.25;8.48;;;;;;;17.55;46.61;96577.81;6237528;23;20077;-81
2022/11/14 11:58:49;;;;;;;11.10;7.82;;;;;;;17.40;46.90;96566.91;6238112;23;20020;-81
2022/11/14 12:01:19;;;;;;;10.65;7.93;;;;;;;17.29;47.42;96571.94;6238754;23;20080;-82
2022/11/14 12:03:52;;;;;;;9.38;7.90;;;;;;;17.24;47.06;96573.63;6238540;23;20025;-81
2022/11/14 12:06:24;;;;;;;9.35;7.45;;;;;;;17.17;47.64;96565.81;6237291;23;20047;-81
2022/11/14 12:09:06;;;;;;;7.80;6.93;;;;;;;17.06;47.29;96571.84;6237161;23;20051;-81
2022/11/14 12:11:41;;;;;;;10.90;7.35;;;;;;;16.85;47.79;96566.00;6236550;23;20032;-81
2022/11/14 12:14:33;;;;;;;8.73;7.05;;;;;;;16.70;48.00;96576.09;6234924;23;20021;-81
2022/11/14 12:17:38;;;;;;;7.57;6.68;;;;;;;16.44;48.49;96570.13;6235230;23;20040;-81
2022/11/14 12:20:48;;;;;;;8.13;6.18;;;;;;;16.18;49.44;96575.66;6234315;23;20042;-81
2022/11/14 12:23:48;;;;;;;9.20;6.32;;;;;;;15.99;49.92;96574.84;6233757;23;20052;-81
2022/11/14 12:26:47;;;;;;;7.18;6.32;;;;;;;15.74;50.67;96570.41;6233757;23;20032;-81
2022/11/14 12:29:43;;;;;;;6.20;5.60;;;;;;;15.56;51.03;96572.91;6234677;23;20072;-81
2022/11/14 12:32:19;;;;;;;8.48;5.93;;;;;;;15.39;51.52;96575.25;6224217;22;20020;-81
2022/11/14 12:34:49;;;;;;;8.77;6.25;;;;;;;15.21;51.64;96587.28;6243983;22;20004;-82
2022/11/14 12:37:23;;;;;;;7.45;6.50;;;;;;;15.03;52.50;96579.31;6243506;22;20274;-82
2022/11/14 12:39:57;;;;;;;7.38;5.88;;;;;;;14.87;52.91;96566.66;6234939;23;20024;-82
2022/11/14 12:42:26;;;;;;;8.05;5.85;;;;;;;14.76;53.11;96571.56;6233664;23;20028;-81
2022/11/14 12:44:55;;;;;;;8.80;6.90;;;;;;;14.60;53.31;96585.16;6234045;23;20083;-82
2022/11/14 12:47:24;;;;;;;8.60;6.15;;;;;;;14.38;53.96;96574.09;6234112;23;20456;-81
2022/11/14 12:50:33;;;;;;;7.43;6.43;;;;;;;14.21;54.73;96573.72;6233996;23;20322;-81
2022/11/14 12:53:03;;;;;;;8.25;5.63;;;;;;;14.08;54.93;96571.94;6231433;23;20020;-81
2022/11/14 12:55:55;;;;;;;7.60;6.35;;;;;;;13.93;55.84;96564.28;6232671;23;20326;-81
2022/11/14 12:58:36;;;;;;;7.63;6.40;;;;;;;13.80;56.17;96553.81;6231633;23;20044;-81
2022/11/14 13:01:20;;;;;;;7.03;6.32;;;;;;;13.72;56.67;96572.38;6230959;23;20036;-81
2022/11/14 13:04:01;;;;;;;9.45;6.55;;;;;;;13.59;56.95;96566.09;6231227;23;20073;-81
2022/11/14 13:06:42;;;;;;;7.35;6.25;;;;;;;13.48;57.33;96565.91;6231246;23;20365;-81
2022/11/14 13:09:32;;;;;;;8.02;6.10;;;;;;;13.36;57.92;96566.50;6230604;23;20035;-81
2022/11/14 13:24:09;;;;;;;6.53;4.75;;;;;;;13.05;58.85;96563.59;6229715;23;20027;-81
2022/11/14 13:26:53;;;;;;;8.55;5.07;;;;;;;12.97;59.53;96554.13;6229150;23;20027;-82
2022/11/14 13:29:58;;;;;;;5.85;4.75;;;;;;;12.88;59.82;96558.72;6227987;23;20028;-81
2022/11/14 13:33:03;;;;;;;5.50;4.78;;;;;;;12.82;60.44;96551.66;6227654;23;20016;-81
2022/11/14 13:35:54;;;;;;;4.75;4.28;;;;;;;12.77;60.32;96544.41;6227981;23;20104;-82
2022/11/14 13:39:02;;;;;;;4.97;3.88;;;;;;;12.70;60.53;96542.75;6227478;23;20044;-81
2022/11/14 13:42:01;;;;;;;5.07;4.32;;;;;;;12.66;60.82;96550.19;6226846;23;20021;-81
2022/11/14 13:45:20;;;;;;;8.90;5.10;;;;;;;12.64;60.96;96546.13;6227042;23;20024;-81
2022/11/14 13:48:12;;;;;;;8.35;4.40;;;;;;;12.62;60.69;96550.78;6191655;23;20043;-81
2022/11/14 13:50:41;;;;;;;7.13;4.25;;;;;;;12.62;60.72;96546.34;6178927;23;20020;-81
2022/11/14 13:53:15;;;;;;;8.13;4.50;;;;;;;12.63;60.68;96547.97;6242167;22;20001;-81
2022/11/14 13:55:56;;;;;;;4.72;3.72;;;;;;;12.69;60.81;96549.78;6231113;23;20072;-81
2022/11/14 13:58:39;;;;;;;5.00;3.33;;;;;;;12.72;60.47;96541.53;6228208;23;20024;-82
2022/11/14 14:01:21;;;;;;;4.95;2.92;;;;;;;12.77;60.15;96544.41;6227458;23;20269;-81
2022/11/14 14:04:07;;;;;;;3.90;2.95;;;;;;;12.84;59.94;96541.00;6229596;23;20021;-81
2022/11/14 14:06:48;;;;;;;3.42;2.60;;;;;;;12.93;59.63;96547.66;6227907;23;20483;-81
2022/11/14 14:09:25;;;;;;;4.63;2.13;;;;;;;12.99;59.33;96531.16;6228674;23;20025;-81
2022/11/14 14:12:21;;;;;;;5.72;2.80;;;;;;;13.06;59.35;96531.97;6228451;23;20024;-81
2022/11/14 14:15:09;;;;;;;2.10;1.90;;;;;;;13.14;59.01;96537.03;6239967;22;20051;-81
2022/11/14 14:17:49;;;;;;;3.40;2.38;;;;;;;13.19;58.87;96529.38;6243944;23;20020;-81
2022/11/14 14:20:30;;;;;;;3.78;2.35;;;;;;;13.23;58.69;96532.41;6238101;23;20028;-81
2022/11/14 14:23:08;;;;;;;3.28;2.22;;;;;;;13.27;58.41;96535.41;6230878;23;20021;-81
2022/11/14 14:25:45;;;;;;;4.35;2.28;;;;;;;13.31;58.35;96531.44;6229619;23;20036;-81
2022/11/14 14:28:24;;;;;;;2.03;1.80;;;;;;;13.34;58.07;96539.72;6227535;23;20017;-81
2022/11/14 14:31:10;;;;;;;2.85;2.08;;;;;;;13.34;58.16;96534.47;6227399;23;20047;-81
2022/11/14 14:33:42;;;;;;;3.00;1.95;;;;;;;13.35;58.07;96548.38;6228052;23;20036;-81
2022/11/14 14:36:19;;;;;;;4.50;2.75;;;;;;;13.36;58.12;96547.38;6229368;23;20017;-81
2022/11/14 14:38:48;;;;;;;3.25;2.08;;;;;;;13.36;58.06;96553.41;6227690;23;20016;-81
2022/11/14 14:41:19;;;;;;;6.00;2.30;;;;;;;13.39;58.06;96542.53;6227440;23;20541;-81
2022/11/14 14:43:54;;;;;;;1.88;1.77;;;;;;;13.42;57.86;96549.16;6226592;23;20334;-81
2022/11/14 14:46:29;;;;;;;4.47;2.05;;;;;;;13.44;57.82;96552.41;6227263;23;20068;-81
2022/11/14 14:48:59;;;;;;;4.78;1.77;;;;;;;13.46;57.72;96557.44;6226202;23;20024;-81